Time;durP1;ratioP1;P1;durP2;ratioP2;P2;SDS_P1;SDS_P2;PMS_P1;PMS_P2;Temp;Humidity;BMP_temperature;BMP_pressure;BME280_temperature;BME280_humidity;BME280_pressure;Samples;Min_cycle;Max_cycle;Signal;HPM_P1;HPM_P2
2022/06/03 00:01:49;;;;;;;3.70;1.93;;;;;;;21.25;42.29;99459.13;4180628;28;20734;-72
2022/06/03 00:04:14;;;;;;;2.00;1.90;;;;;;;20.95;42.85;99461.97;4197328;28;20294;-73
2022/06/03 00:06:35;;;;;;;3.37;2.00;;;;;;;20.49;44.00;99439.25;4182727;28;21374;-73
2022/06/03 00:09:02;;;;;;;2.53;1.80;;;;;;;20.70;42.99;99463.00;4184811;28;20211;-73
2022/06/03 00:11:25;;;;;;;2.60;1.80;;;;;;;20.35;43.16;99477.25;4187063;28;20235;-72
2022/06/03 00:13:53;;;;;;;6.90;2.20;;;;;;;20.47;43.51;99436.75;4186990;28;20208;-72
2022/06/03 00:16:24;;;;;;;1.70;1.60;;;;;;;20.74;42.67;99461.47;4186373;28;20208;-72
2022/06/03 00:18:54;;;;;;;3.07;1.90;;;;;;;21.11;42.18;99439.66;4154507;28;20230;-73
2022/06/03 00:21:10;;;;;;;4.07;2.10;;;;;;;20.61;43.02;99456.28;4192487;28;20234;-73
2022/06/03 00:23:15;;;;;;;6.03;1.90;;;;;;;21.07;42.41;99434.94;4181449;28;20253;-73
2022/06/03 00:25:22;;;;;;;5.60;2.10;;;;;;;20.94;42.31;99458.44;4191404;28;20215;-72
2022/06/03 00:27:59;;;;;;;1.80;1.70;;;;;;;20.54;43.38;99453.69;4188484;28;20216;-73
2022/06/03 00:30:39;;;;;;;2.17;1.80;;;;;;;20.74;42.67;99464.16;4172533;28;20707;-73
2022/06/03 00:32:49;;;;;;;3.87;2.00;;;;;;;20.65;42.60;99475.53;4188340;28;20280;-73
2022/06/03 00:35:11;;;;;;;2.10;2.00;;;;;;;20.68;42.77;99467.78;4187966;28;20284;-73
2022/06/03 00:37:22;;;;;;;2.00;1.77;;;;;;;20.94;42.06;99458.44;4186609;28;20261;-73
2022/06/03 00:39:54;;;;;;;2.87;1.90;;;;;;;21.13;41.98;99456.44;4186800;28;20286;-73
2022/06/03 00:42:23;;;;;;;3.83;2.00;;;;;;;21.31;41.45;99479.84;4187116;28;20270;-73
2022/06/03 00:44:43;;;;;;;2.27;2.00;;;;;;;20.99;42.00;99495.59;4190608;28;20203;-73
2022/06/03 00:46:47;;;;;;;1.90;1.70;;;;;;;20.38;43.02;99489.44;4189662;28;20274;-73
2022/06/03 00:49:07;;;;;;;3.07;2.00;;;;;;;20.48;42.69;99484.31;4189113;28;20216;-73
2022/06/03 00:51:18;;;;;;;2.03;1.93;;;;;;;20.87;41.84;99483.91;4191267;28;20242;-73
2022/06/03 00:54:08;;;;;;;2.20;2.00;;;;;;;20.53;42.33;99483.63;4182317;28;20216;-73
2022/06/03 00:56:15;;;;;;;2.97;2.03;;;;;;;20.68;42.55;99480.47;4190305;28;20216;-73
2022/06/03 00:58:26;;;;;;;2.60;2.40;;;;;;;20.44;42.89;99493.94;4185398;28;20215;-73
2022/06/03 01:00:32;;;;;;;2.30;1.97;;;;;;;19.27;44.92;99468.78;4186105;28;20302;-73
2022/06/03 01:02:46;;;;;;;2.33;2.13;;;;;;;20.23;43.24;99462.88;4191330;28;20250;-74
2022/06/03 01:05:22;;;;;;;3.07;2.27;;;;;;;20.06;43.70;99476.16;4181097;28;20227;-73
2022/06/03 01:07:40;;;;;;;2.60;1.83;;;;;;;20.02;43.71;99474.97;4205980;28;20210;-73
2022/06/03 01:10:24;;;;;;;2.03;1.93;;;;;;;19.77;43.92;99464.28;4199130;28;20230;-73
2022/06/03 01:12:57;;;;;;;2.13;1.93;;;;;;;20.57;42.63;99466.72;4202593;28;20207;-73
2022/06/03 01:15:15;;;;;;;3.50;2.27;;;;;;;20.14;42.86;99469.63;4177398;28;20790;-73
2022/06/03 01:17:25;;;;;;;2.20;2.00;;;;;;;20.68;41.94;99492.09;4195497;28;20261;-74
2022/06/03 01:19:29;;;;;;;4.27;2.40;;;;;;;20.48;42.55;99483.50;4205938;28;20211;-73
2022/06/03 01:21:49;;;;;;;3.93;2.40;;;;;;;20.12;43.38;99496.03;4207097;28;20568;-73
2022/06/03 01:24:12;;;;;;;2.70;2.50;;;;;;;19.11;44.17;99507.06;4206109;28;20202;-73
2022/06/03 01:26:30;;;;;;;2.70;2.50;;;;;;;19.39;44.33;99449.97;4203300;28;20707;-73
2022/06/03 01:29:20;;;;;;;3.60;2.50;;;;;;;19.53;43.82;99472.22;4187886;28;20211;-73
2022/06/03 01:31:59;;;;;;;3.97;2.30;;;;;;;19.76;43.38;99462.63;4190806;28;20234;-73
2022/06/03 01:34:35;;;;;;;5.80;2.33;;;;;;;20.03;42.77;99463.94;4187512;28;20260;-73
2022/06/03 01:36:45;;;;;;;2.67;2.40;;;;;;;19.57;43.36;99486.09;4182564;28;20199;-73
2022/06/03 01:39:25;;;;;;;4.07;2.37;;;;;;;20.10;42.43;99473.84;4188121;28;20207;-74
2022/06/03 01:42:05;;;;;;;4.17;2.27;;;;;;;19.96;42.82;99489.38;4202902;28;20245;-73
2022/06/03 01:44:28;;;;;;;6.10;2.33;;;;;;;20.13;42.07;99489.56;4168837;28;20222;-73
2022/06/03 01:46:58;;;;;;;2.67;2.03;;;;;;;19.32;43.24;99505.84;4197010;28;20258;-73
2022/06/03 01:49:14;;;;;;;2.40;2.23;;;;;;;20.21;42.01;99481.97;4199544;28;20234;-73
2022/06/03 01:52:00;;;;;;;4.40;2.70;;;;;;;20.11;42.31;99486.25;4186695;28;20227;-73
2022/06/03 01:54:02;;;;;;;3.87;2.20;;;;;;;19.73;43.00;99490.09;4172391;28;20227;-73
2022/06/03 01:56:13;;;;;;;3.80;2.17;;;;;;;19.57;42.80;99488.81;4206822;28;20221;-73
2022/06/03 01:58:52;;;;;;;5.33;2.60;;;;;;;19.68;43.00;99456.50;4201396;28;20207;-73
2022/06/03 02:01:10;;;;;;;2.43;2.10;;;;;;;19.77;42.54;99469.69;4197550;28;20261;-74
2022/06/03 02:03:42;;;;;;;3.97;2.70;;;;;;;19.97;42.02;99480.22;4201536;28;20212;-73
2022/06/03 02:06:27;;;;;;;2.70;2.50;;;;;;;19.69;42.99;99481.63;4184944;28;20220;-73
2022/06/03 02:08:56;;;;;;;2.67;2.43;;;;;;;19.05;43.91;99467.53;4189708;28;20692;-73
2022/06/03 02:11:26;;;;;;;2.50;1.83;;;;;;;19.68;42.58;99456.50;4186531;28;20998;-73
2022/06/03 02:13:46;;;;;;;2.30;2.10;;;;;;;19.96;42.06;99479.41;4185182;28;20263;-73
2022/06/03 02:16:01;;;;;;;3.03;2.03;;;;;;;19.76;42.60;99495.00;4184450;28;20740;-73
2022/06/03 02:18:15;;;;;;;2.97;2.40;;;;;;;19.97;41.91;99482.94;4179484;28;20274;-73
2022/06/03 02:20:47;;;;;;;2.73;2.40;;;;;;;20.00;41.96;99479.78;4187734;28;20712;-73
2022/06/03 02:23:25;;;;;;;2.20;2.10;;;;;;;19.72;42.70;99477.63;4178370;28;20216;-73
2022/06/03 02:26:03;;;;;;;1.90;1.80;;;;;;;19.59;42.71;99492.94;4184127;28;20943;-74
2022/06/03 02:28:23;;;;;;;2.47;2.27;;;;;;;20.19;41.54;99478.66;4190928;28;20256;-73
2022/06/03 02:30:33;;;;;;;3.67;2.50;;;;;;;19.72;42.50;99489.25;4189066;28;20260;-73
2022/06/03 02:33:16;;;;;;;3.50;2.47;;;;;;;20.58;41.21;99464.84;4185476;28;20230;-73
2022/06/03 02:35:46;;;;;;;3.97;2.10;;;;;;;20.54;41.14;99498.78;4188150;28;20269;-73
2022/06/03 02:38:13;;;;;;;2.73;2.03;;;;;;;20.04;42.01;99486.34;4188990;28;20207;-73
2022/06/03 02:40:30;;;;;;;3.83;2.33;;;;;;;19.65;42.39;99500.09;4178125;28;20232;-73
2022/06/03 02:42:47;;;;;;;2.30;2.03;;;;;;;19.47;42.71;99513.56;4181852;28;20266;-73
2022/06/03 02:45:09;;;;;;;2.40;2.20;;;;;;;19.94;41.69;99513.06;4184551;28;20222;-73
2022/06/03 02:47:31;;;;;;;2.50;2.30;;;;;;;19.70;42.15;99505.66;4188919;28;20281;-73
2022/06/03 02:49:43;;;;;;;2.40;2.20;;;;;;;19.31;42.24;99547.31;4182113;28;20260;-73
2022/06/03 02:51:44;;;;;;;2.20;2.00;;;;;;;19.64;42.36;99514.66;4183983;28;20227;-73
2022/06/03 02:54:21;;;;;;;2.57;2.17;;;;;;;19.54;42.61;99502.69;4187843;28;20265;-73
2022/06/03 02:57:02;;;;;;;2.30;2.10;;;;;;;20.06;41.42;99492.34;4140368;28;20228;-74
2022/06/03 02:59:38;;;;;;;2.77;2.37;;;;;;;19.74;42.56;99491.72;4181748;28;20796;-73
2022/06/03 03:02:07;;;;;;;2.90;2.33;;;;;;;18.75;42.88;99535.53;4186085;28;20285;-73
2022/06/03 03:04:47;;;;;;;2.50;2.30;;;;;;;19.67;42.57;99448.63;4178486;28;20219;-73
2022/06/03 03:07:20;;;;;;;6.20;2.13;;;;;;;19.34;42.54;99471.41;4198019;28;20247;-73
2022/06/03 03:09:53;;;;;;;5.23;2.20;;;;;;;19.51;42.50;99455.44;4205305;28;20248;-73
2022/06/03 03:12:14;;;;;;;2.80;2.50;;;;;;;19.84;41.64;99451.53;4184449;28;20208;-73
2022/06/03 03:14:54;;;;;;;3.43;2.27;;;;;;;19.78;41.68;99455.16;4199173;28;20210;-73
2022/06/03 03:17:23;;;;;;;4.10;2.13;;;;;;;18.91;43.16;99494.63;4194443;28;20625;-73
2022/06/03 03:19:49;;;;;;;2.47;2.27;;;;;;;19.57;42.04;99467.22;4185259;28;20210;-72
2022/06/03 03:22:12;;;;;;;2.13;1.90;;;;;;;19.77;41.67;99464.28;4196076;28;20227;-72
2022/06/03 03:24:30;;;;;;;2.60;2.17;;;;;;;19.57;42.28;99486.94;4202305;28;20260;-72
2022/06/03 03:27:08;;;;;;;3.43;2.20;;;;;;;19.60;41.94;99469.47;4199270;28;20245;-72
2022/06/03 03:29:37;;;;;;;2.63;2.10;;;;;;;19.46;42.48;99477.69;4200995;28;20202;-72
2022/06/03 03:32:12;;;;;;;3.80;2.20;;;;;;;18.63;43.32;99503.09;4199082;28;20699;-72
2022/06/03 03:34:26;;;;;;;3.13;2.17;;;;;;;19.27;42.60;99474.16;4200007;28;20211;-72
2022/06/03 03:37:02;;;;;;;2.47;2.27;;;;;;;19.23;42.70;99440.59;4195530;28;20269;-72
2022/06/03 03:39:44;;;;;;;2.20;2.00;;;;;;;18.14;44.11;99500.06;4193103;28;20204;-72
2022/06/03 03:42:02;;;;;;;2.10;2.00;;;;;;;19.12;42.81;99414.41;4204129;28;20309;-72
2022/06/03 03:44:22;;;;;;;2.60;2.30;;;;;;;19.43;42.46;99426.91;4202880;28;20206;-71
2022/06/03 03:46:57;;;;;;;2.40;2.13;;;;;;;19.46;42.47;99422.94;4201767;28;20253;-72
2022/06/03 03:49:14;;;;;;;5.23;2.27;;;;;;;18.70;43.11;99466.16;4207091;28;20242;-72
2022/06/03 03:51:40;;;;;;;2.80;2.17;;;;;;;19.41;42.40;99447.06;4209719;28;20651;-72
2022/06/03 03:53:59;;;;;;;2.83;2.30;;;;;;;19.11;42.88;99442.41;4201900;28;20667;-72
2022/06/03 03:56:28;;;;;;;3.83;1.70;;;;;;;19.13;43.11;99430.34;4204037;28;20808;-72
2022/06/03 03:58:49;;;;;;;2.87;2.13;;;;;;;18.78;43.24;99457.78;4189732;28;20222;-71
2022/06/03 04:00:59;;;;;;;2.33;2.13;;;;;;;19.14;42.48;99472.41;4202870;28;20877;-72
2022/06/03 04:03:22;;;;;;;5.07;2.00;;;;;;;18.77;43.53;99448.06;4207463;28;20210;-72
2022/06/03 04:05:58;;;;;;;2.50;2.30;;;;;;;18.80;43.41;99440.59;4205948;28;20211;-72
2022/06/03 04:08:43;;;;;;;1.97;1.87;;;;;;;19.16;42.67;99442.53;4174142;28;20306;-72
2022/06/03 04:11:27;;;;;;;2.20;2.10;;;;;;;18.94;42.80;99487.94;4174189;28;20239;-72
2022/06/03 04:13:45;;;;;;;2.97;2.07;;;;;;;18.26;43.66;99488.63;4136152;28;20212;-72
2022/06/03 04:16:09;;;;;;;2.63;2.43;;;;;;;19.05;42.71;99446.81;4163110;28;20212;-72
2022/06/03 04:18:46;;;;;;;1.93;1.83;;;;;;;19.31;42.79;99426.81;4173726;28;20212;-72
2022/06/03 04:21:00;;;;;;;2.70;2.17;;;;;;;18.84;43.52;99444.53;4165714;28;20237;-72
2022/06/03 04:23:04;;;;;;;2.30;1.83;;;;;;;18.55;43.42;99468.34;4173030;28;20211;-72
2022/06/03 04:25:40;;;;;;;2.50;2.30;;;;;;;18.74;43.37;99434.22;4174899;28;20262;-72
2022/06/03 04:28:19;;;;;;;2.90;2.07;;;;;;;19.26;42.55;99425.88;4171439;28;20228;-72
2022/06/03 04:30:37;;;;;;;2.43;2.23;;;;;;;18.51;43.73;99440.19;4175110;28;20254;-72
2022/06/03 04:32:42;;;;;;;3.33;2.20;;;;;;;18.29;44.37;99455.88;4173129;28;20218;-72
2022/06/03 04:35:21;;;;;;;3.60;2.10;;;;;;;18.71;43.81;99440.88;4167194;28;20213;-72
2022/06/03 04:37:57;;;;;;;2.63;2.43;;;;;;;18.93;43.12;99459.34;4174233;28;20790;-72
2022/06/03 04:40:18;;;;;;;2.60;2.40;;;;;;;19.07;43.58;99423.16;4172104;28;20273;-72
2022/06/03 04:42:55;;;;;;;2.33;2.13;;;;;;;18.59;43.79;99453.38;4170680;28;20223;-72
2022/06/03 04:45:12;;;;;;;2.77;2.20;;;;;;;18.41;43.81;99489.16;4165944;28;20247;-72
2022/06/03 04:47:20;;;;;;;3.43;2.00;;;;;;;18.28;44.24;99487.34;4173298;28;20231;-72
2022/06/03 04:49:41;;;;;;;4.77;2.70;;;;;;;19.56;42.60;99417.06;4173584;28;20241;-72
2022/06/03 04:52:24;;;;;;;2.70;2.03;;;;;;;19.47;42.88;99429.97;4171452;28;20251;-72
2022/06/03 04:54:28;;;;;;;2.43;2.00;;;;;;;18.43;44.20;99484.38;4172043;28;20235;-72
2022/06/03 04:56:48;;;;;;;2.77;2.30;;;;;;;19.12;42.88;99465.63;4169426;28;20329;-72
2022/06/03 04:59:25;;;;;;;4.40;2.13;;;;;;;18.49;44.02;99486.19;4168276;28;20291;-72
2022/06/03 05:01:54;;;;;;;5.53;2.40;;;;;;;18.88;43.58;99464.56;4172957;28;20772;-72
2022/06/03 05:04:33;;;;;;;2.13;1.90;;;;;;;19.59;42.49;99457.88;4163932;28;20209;-72
2022/06/03 05:07:33;;;;;;;3.40;2.53;;;;;;;18.69;44.03;99477.13;4188480;28;20242;-72
2022/06/03 05:09:59;;;;;;;3.27;2.30;;;;;;;19.83;42.62;99425.63;4181251;28;20222;-71
2022/06/03 05:12:47;;;;;;;2.53;1.87;;;;;;;19.36;42.52;99495.44;4203161;28;20264;-72
2022/06/03 05:14:57;;;;;;;2.30;2.10;;;;;;;19.90;42.23;99466.81;4180785;28;20214;-72
2022/06/03 05:17:07;;;;;;;2.47;2.03;;;;;;;20.17;41.60;99461.88;4196049;28;20682;-72
2022/06/03 05:19:19;;;;;;;2.50;2.30;;;;;;;19.27;42.29;99509.19;4203054;28;20203;-72
2022/06/03 05:21:44;;;;;;;2.30;2.10;;;;;;;19.55;42.90;99486.31;4200680;28;20308;-72
2022/06/03 05:23:55;;;;;;;2.43;2.20;;;;;;;19.77;42.47;99464.28;4202396;28;20241;-72
2022/06/03 05:26:05;;;;;;;2.30;2.10;;;;;;;19.16;42.96;99503.72;4201569;28;20648;-72
2022/06/03 05:28:43;;;;;;;4.50;1.93;;;;;;;20.50;41.06;99459.78;4201294;28;20578;-73
2022/06/03 05:31:22;;;;;;;2.23;1.80;;;;;;;19.55;43.09;99509.78;4200983;28;20288;-73
2022/06/03 05:33:35;;;;;;;2.20;1.80;;;;;;;19.61;42.53;99484.63;4205396;28;20676;-72
2022/06/03 05:35:55;;;;;;;2.53;2.00;;;;;;;19.65;43.17;99469.63;4184375;28;20214;-72
2022/06/03 05:38:19;;;;;;;2.20;2.00;;;;;;;19.16;43.06;99525.28;4204882;28;20206;-72
2022/06/03 05:40:34;;;;;;;2.77;1.97;;;;;;;20.80;40.94;99440.78;4197909;28;20226;-72
2022/06/03 05:42:57;;;;;;;1.90;1.70;;;;;;;20.79;40.96;99483.19;4203246;28;20290;-72
2022/06/03 05:45:04;;;;;;;2.27;2.07;;;;;;;19.92;42.45;99483.59;4187547;28;20215;-72
2022/06/03 05:47:15;;;;;;;2.23;2.00;;;;;;;20.45;41.69;99446.97;4200872;28;20226;-72
2022/06/03 05:49:26;;;;;;;2.30;1.80;;;;;;;20.80;41.38;99489.41;4204981;28;20295;-72
2022/06/03 05:51:38;;;;;;;2.00;1.80;;;;;;;20.58;41.89;99490.00;4200488;28;20227;-72
2022/06/03 05:54:12;;;;;;;2.60;1.90;;;;;;;20.27;42.37;99474.06;4185875;28;20203;-72
2022/06/03 05:56:26;;;;;;;2.53;1.97;;;;;;;20.40;42.26;99468.47;4204513;28;20642;-72
2022/06/03 05:58:41;;;;;;;2.43;2.23;;;;;;;20.48;41.86;99468.09;4189009;28;20207;-72
2022/06/03 06:01:00;;;;;;;1.97;1.80;;;;;;;20.16;42.42;99471.06;4205365;28;20233;-72
2022/06/03 06:03:08;;;;;;;3.03;2.17;;;;;;;20.38;42.03;99467.84;4187049;28;20255;-72
2022/06/03 06:05:41;;;;;;;2.10;2.00;;;;;;;20.71;41.51;99463.81;4201709;28;20259;-72
2022/06/03 06:08:01;;;;;;;1.90;1.80;;;;;;;19.97;42.73;99501.81;4196219;28;20247;-72
2022/06/03 06:10:37;;;;;;;3.17;2.17;;;;;;;20.50;42.00;99493.03;4199576;28;20210;-72
2022/06/03 06:13:21;;;;;;;4.10;2.33;;;;;;;20.87;41.77;99492.84;4201045;28;20257;-73
2022/06/03 06:15:22;;;;;;;2.53;2.20;;;;;;;20.99;41.03;99503.72;4199383;28;20211;-72
2022/06/03 06:17:54;;;;;;;3.00;2.03;;;;;;;20.50;42.24;99494.88;4204642;28;20203;-72
2022/06/03 06:20:21;;;;;;;4.23;2.40;;;;;;;21.01;42.02;99462.94;4204282;28;20215;-73
2022/06/03 06:22:30;;;;;;;2.53;2.20;;;;;;;21.08;42.03;99467.16;4203232;28;20215;-72
2022/06/03 06:24:34;;;;;;;4.10;2.20;;;;;;;20.79;42.31;99502.13;4184902;28;20704;-72
2022/06/03 06:27:11;;;;;;;2.67;2.40;;;;;;;21.34;41.78;99487.47;4200930;28;20226;-73
2022/06/03 06:29:13;;;;;;;3.10;1.83;;;;;;;21.54;41.56;99484.41;4201881;28;20241;-72
2022/06/03 06:31:38;;;;;;;3.57;2.43;;;;;;;20.51;42.77;99529.75;4198886;28;20283;-72
2022/06/03 06:34:04;;;;;;;2.40;2.27;;;;;;;22.02;40.55;99460.75;4180086;28;20224;-74
2022/06/03 06:36:39;;;;;;;4.07;1.97;;;;;;;21.24;41.56;99495.38;4197409;28;20211;-72
2022/06/03 06:38:58;;;;;;;2.77;2.20;;;;;;;21.34;41.57;99483.94;4190665;28;20280;-72
2022/06/03 06:41:21;;;;;;;4.23;2.13;;;;;;;21.51;42.02;99482.16;4198641;28;20231;-72
2022/06/03 06:43:32;;;;;;;2.33;2.17;;;;;;;21.46;42.81;99471.25;4198488;28;20687;-72
2022/06/03 06:46:35;;;;;;;3.00;2.10;;;;;;;21.58;41.83;99467.66;4202702;28;20218;-73
2022/06/03 06:48:58;;;;;;;1.83;1.70;;;;;;;21.83;42.86;99473.66;4177324;28;20246;-72
2022/06/03 06:51:22;;;;;;;2.10;1.90;;;;;;;21.96;42.03;99471.72;4202268;28;20238;-72
2022/06/03 06:54:01;;;;;;;2.13;1.90;;;;;;;21.47;41.88;99461.22;4204749;28;20211;-73
2022/06/03 06:56:32;;;;;;;3.17;2.10;;;;;;;22.53;40.92;99441.06;4156043;28;20223;-72
2022/06/03 06:59:06;;;;;;;2.33;1.90;;;;;;;22.40;40.72;99466.59;4196883;28;20268;-72
2022/06/03 07:01:09;;;;;;;2.00;1.90;;;;;;;22.09;41.38;99498.50;4182578;28;20265;-72
2022/06/03 07:03:21;;;;;;;2.10;1.93;;;;;;;22.36;41.61;99473.56;4197212;28;20214;-72
2022/06/03 07:05:41;;;;;;;4.37;2.30;;;;;;;22.66;40.90;99467.84;4203958;28;20203;-73
2022/06/03 07:08:07;;;;;;;4.70;1.77;;;;;;;21.77;42.52;99463.78;4200781;28;20243;-72
2022/06/03 07:10:31;;;;;;;2.83;2.07;;;;;;;22.58;41.19;99452.00;4201623;28;20672;-72
2022/06/03 07:13:08;;;;;;;2.77;1.80;;;;;;;22.04;42.19;99496.50;4199744;28;20826;-72
2022/06/03 07:15:15;;;;;;;3.20;1.93;;;;;;;21.65;42.60;99490.06;4204586;28;20214;-72
2022/06/03 07:20:16;;;;;;;5.87;2.40;;;;;;;21.15;43.32;99475.94;4205621;28;20218;-73
2022/06/03 07:22:17;;;;;;;2.03;1.90;;;;;;;22.28;42.31;99445.78;4206611;28;20210;-72
2022/06/03 07:24:53;;;;;;;2.45;2.25;;;;;;;22.24;41.79;99439.22;4206625;28;20642;-72
2022/06/03 07:27:00;;;;;;;2.77;2.13;;;;;;;22.73;41.85;99403.47;4189768;28;20203;-72
2022/06/03 07:29:14;;;;;;;4.25;2.58;;;;;;;22.97;41.79;99381.59;4208605;28;20224;-72
2022/06/03 07:31:34;;;;;;;4.33;2.20;;;;;;;22.76;42.20;99416.53;4202753;28;20227;-72
2022/06/03 07:33:43;;;;;;;2.10;1.90;;;;;;;21.90;43.28;99432.91;4188830;28;20276;-72
2022/06/03 07:36:14;;;;;;;2.07;1.90;;;;;;;23.25;40.95;99402.31;4203615;28;20207;-72
2022/06/03 07:38:23;;;;;;;2.28;1.80;;;;;;;23.03;41.84;99440.25;4188748;28;20253;-72
2022/06/03 07:40:45;;;;;;;4.35;2.00;;;;;;;22.95;42.13;99432.53;4187717;28;20231;-72
2022/06/03 07:43:07;;;;;;;3.00;2.00;;;;;;;23.49;41.60;99393.94;4206969;28;20206;-72
2022/06/03 07:45:35;;;;;;;2.00;1.83;;;;;;;23.18;42.37;99413.34;4185422;28;20636;-73
2022/06/03 07:47:37;;;;;;;5.43;2.10;;;;;;;23.43;40.56;99432.91;4205669;28;20222;-72
2022/06/03 07:49:39;;;;;;;2.95;2.10;;;;;;;23.59;41.53;99426.63;4185668;28;20211;-72
2022/06/03 07:51:54;;;;;;;2.20;2.00;;;;;;;23.18;42.55;99421.50;4205543;28;20291;-72
2022/06/03 07:54:22;;;;;;;3.10;2.17;;;;;;;22.89;42.60;99434.31;4203306;28;20925;-72
2022/06/03 07:56:28;;;;;;;3.83;2.13;;;;;;;23.45;42.97;99388.19;4204854;28;20207;-72
2022/06/03 07:58:37;;;;;;;2.42;2.20;;;;;;;23.11;42.85;99412.69;4204042;28;20256;-72
2022/06/03 08:00:40;;;;;;;3.20;2.63;;;;;;;23.35;42.44;99380.75;4202429;28;20258;-72
2022/06/03 08:02:42;;;;;;;2.53;2.22;;;;;;;23.99;41.22;99392.03;4202136;28;20298;-73
2022/06/03 08:05:10;;;;;;;3.30;2.05;;;;;;;23.68;42.18;99413.44;4199616;28;20210;-72
2022/06/03 08:12:38;;;;;;;3.83;2.05;;;;;;;23.60;43.00;99427.44;4208138;28;20272;-73
2022/06/03 08:14:40;;;;;;;3.13;2.25;;;;;;;23.63;42.24;99426.94;4206822;28;20215;-72
2022/06/03 08:16:49;;;;;;;3.58;2.20;;;;;;;23.52;42.76;99405.09;4204562;28;20214;-72
2022/06/03 08:18:59;;;;;;;2.53;2.05;;;;;;;23.66;42.26;99400.13;4205335;28;20207;-73
2022/06/03 08:21:06;;;;;;;2.33;2.00;;;;;;;24.37;41.75;99379.34;4207781;28;20287;-73
2022/06/03 08:23:17;;;;;;;4.50;2.40;;;;;;;23.31;42.53;99409.44;4187041;28;20211;-73
2022/06/03 08:25:25;;;;;;;2.72;2.30;;;;;;;23.89;41.39;99382.72;4206507;28;20214;-73
2022/06/03 08:27:36;;;;;;;4.43;2.83;;;;;;;24.74;40.47;99382.06;4204997;28;20210;-72
2022/06/03 08:29:49;;;;;;;2.60;2.40;;;;;;;23.22;42.41;99442.69;4204252;28;20260;-73
2022/06/03 08:31:54;;;;;;;6.32;2.53;;;;;;;23.80;41.84;99418.72;4204071;28;20226;-72
2022/06/03 08:33:58;;;;;;;3.05;2.33;;;;;;;24.27;41.80;99420.84;4205444;28;20218;-72
2022/06/03 08:36:12;;;;;;;2.40;2.20;;;;;;;24.22;42.20;99427.03;4201721;28;20210;-72
2022/06/03 08:38:55;;;;;;;3.67;2.25;;;;;;;24.77;41.29;99391.63;4205854;28;20211;-72
2022/06/03 08:41:49;;;;;;;2.47;2.28;;;;;;;24.85;40.85;99393.84;4190586;28;20223;-73
2022/06/03 08:44:28;;;;;;;4.07;2.50;;;;;;;24.03;42.10;99407.56;4158806;28;20228;-72
2022/06/03 08:46:46;;;;;;;4.13;2.20;;;;;;;24.18;42.24;99412.34;4199683;28;20243;-72
2022/06/03 08:48:51;;;;;;;2.40;1.80;;;;;;;23.90;42.49;99425.06;4202620;28;20245;-72
2022/06/03 08:51:05;;;;;;;4.57;2.28;;;;;;;24.65;41.73;99400.78;4189647;28;20810;-72
2022/06/03 08:53:27;;;;;;;3.30;2.25;;;;;;;25.08;41.62;99406.22;4183217;28;20255;-73
2022/06/03 08:55:54;;;;;;;4.93;2.17;;;;;;;25.28;40.50;99391.91;4199131;28;20219;-72
2022/06/03 08:58:21;;;;;;;4.15;2.28;;;;;;;24.51;41.63;99402.28;4206888;28;20594;-72
2022/06/03 09:00:30;;;;;;;2.40;2.00;;;;;;;24.24;42.40;99415.91;4202266;28;20242;-72
2022/06/03 09:02:44;;;;;;;3.28;2.10;;;;;;;24.74;42.23;99398.38;4199329;28;20682;-72
2022/06/03 09:05:04;;;;;;;2.40;2.05;;;;;;;23.73;42.76;99397.19;4203013;28;20219;-72
2022/06/03 09:07:41;;;;;;;3.53;2.20;;;;;;;23.37;43.24;99404.91;4198505;28;20242;-73
2022/06/03 09:10:07;;;;;;;2.80;2.42;;;;;;;25.16;41.23;99355.94;4204600;28;20215;-72
2022/06/03 09:12:27;;;;;;;3.38;2.20;;;;;;;25.46;42.06;99354.44;4198390;28;20858;-72
2022/06/03 09:14:31;;;;;;;3.03;2.38;;;;;;;25.55;41.50;99359.09;4200922;28;20218;-72
2022/06/03 09:16:35;;;;;;;2.28;2.08;;;;;;;25.37;42.71;99373.19;4205819;28;20207;-72
2022/06/03 09:18:52;;;;;;;4.22;2.47;;;;;;;25.52;41.21;99375.13;4203440;28;20289;-72
2022/06/03 09:21:06;;;;;;;4.00;2.22;;;;;;;25.76;40.39;99373.56;4206830;28;20283;-73
2022/06/03 09:23:12;;;;;;;2.20;2.00;;;;;;;25.49;41.79;99381.94;4204386;28;20242;-73
2022/06/03 09:25:20;;;;;;;2.97;2.20;;;;;;;26.24;40.67;99372.56;4201443;28;20268;-73
2022/06/03 09:27:22;;;;;;;3.33;2.30;;;;;;;26.22;40.43;99402.81;4203918;28;20654;-73
2022/06/03 09:29:25;;;;;;;3.25;2.00;;;;;;;26.73;39.81;99393.81;4206140;28;20276;-74
2022/06/03 09:31:38;;;;;;;2.88;2.13;;;;;;;26.47;41.10;99385.63;4198830;28;20285;-73
2022/06/03 09:33:44;;;;;;;2.15;1.92;;;;;;;26.39;39.92;99409.91;4204344;28;20206;-73
2022/06/03 09:35:54;;;;;;;12.55;2.35;;;;;;;26.56;39.83;99415.09;4200289;28;20212;-73
2022/06/03 09:38:05;;;;;;;2.38;2.20;;;;;;;26.67;39.45;99406.63;4183293;28;20208;-74
2022/06/03 09:40:12;;;;;;;3.95;2.20;;;;;;;26.80;38.86;99420.78;4200417;28;20268;-74
2022/06/03 09:42:16;;;;;;;3.42;2.40;;;;;;;26.55;40.71;99419.72;4188624;28;20211;-73
2022/06/03 09:44:26;;;;;;;4.18;2.08;;;;;;;26.89;39.99;99409.06;4203348;28;20230;-74
2022/06/03 09:46:29;;;;;;;3.85;2.50;;;;;;;25.95;41.00;99417.47;4183084;28;20220;-73
2022/06/03 09:48:36;;;;;;;3.03;2.38;;;;;;;26.51;40.88;99397.66;4188253;28;20753;-73
2022/06/03 09:50:50;;;;;;;4.38;2.30;;;;;;;26.44;40.08;99410.72;4202801;28;20234;-74
2022/06/03 09:53:12;;;;;;;3.97;2.20;;;;;;;26.85;41.30;99375.22;4200966;28;20709;-73
2022/06/03 09:55:23;;;;;;;6.95;2.10;;;;;;;26.38;41.30;99390.00;4202785;28;20272;-73
2022/06/03 09:57:41;;;;;;;6.00;2.10;;;;;;;26.99;40.67;99394.53;4197712;28;20220;-73
2022/06/03 10:00:03;;;;;;;3.03;2.17;;;;;;;27.12;40.94;99382.28;4197992;28;20297;-73
2022/06/03 10:02:07;;;;;;;2.55;1.98;;;;;;;26.61;40.37;99420.56;4195691;28;20723;-73
2022/06/03 10:04:17;;;;;;;3.70;3.00;;;;;;;27.04;40.12;99399.19;4197918;28;20277;-74
2022/06/03 10:06:47;;;;;;;5.00;2.45;;;;;;;26.36;40.80;99427.59;4205539;28;20694;-74
2022/06/03 10:13:42;;;;;;;3.60;2.28;;;;;;;26.93;40.23;99435.78;4202740;28;20215;-74
2022/06/03 10:15:44;;;;;;;3.13;2.30;;;;;;;27.24;40.16;99453.72;4188092;28;20219;-74
2022/06/03 10:17:58;;;;;;;2.50;2.20;;;;;;;27.02;39.99;99445.03;4186569;28;20230;-74
2022/06/03 10:19:59;;;;;;;2.75;2.10;;;;;;;27.40;40.29;99456.44;4205604;28;20695;-74
2022/06/03 10:22:08;;;;;;;4.43;2.60;;;;;;;28.40;38.81;99448.25;4207066;28;20206;-74
2022/06/03 10:24:16;;;;;;;2.75;2.55;;;;;;;27.48;39.02;99468.66;4198954;28;20738;-74
2022/06/03 10:26:29;;;;;;;2.60;2.30;;;;;;;28.35;38.28;99452.66;4201779;28;20335;-74
2022/06/03 10:28:40;;;;;;;2.83;2.20;;;;;;;28.07;39.76;99472.50;4203386;28;20275;-74
2022/06/03 10:31:04;;;;;;;6.13;2.55;;;;;;;28.59;39.27;99460.13;4200890;28;20299;-74
2022/06/03 10:33:06;;;;;;;6.13;2.70;;;;;;;28.23;38.66;99463.13;4200632;28;20214;-74
2022/06/03 10:35:16;;;;;;;3.33;2.20;;;;;;;27.80;39.59;99457.34;4200866;28;20207;-73
2022/06/03 10:37:26;;;;;;;3.80;2.38;;;;;;;28.68;37.80;99461.19;4205010;28;20253;-75
2022/06/03 10:39:30;;;;;;;3.10;2.42;;;;;;;28.12;38.67;99472.47;4188489;28;20828;-74
2022/06/03 10:41:40;;;;;;;5.10;2.22;;;;;;;28.36;38.65;99473.44;4204439;28;20311;-74
2022/06/03 10:43:48;;;;;;;2.50;2.25;;;;;;;27.52;39.90;99480.69;4199666;28;20279;-73
2022/06/03 10:45:50;;;;;;;3.58;2.35;;;;;;;27.90;39.68;99462.75;4184899;28;20215;-73
2022/06/03 10:47:52;;;;;;;2.60;2.40;;;;;;;27.60;40.50;99460.97;4205196;28;20210;-74
2022/06/03 10:50:09;;;;;;;4.07;2.55;;;;;;;27.68;40.43;99440.50;4197688;28;20225;-74
2022/06/03 11:03:30;;;;;;;4.57;2.47;;;;;;;25.87;44.58;99346.38;4136504;27;20578;-74
2022/06/03 11:05:37;;;;;;;5.40;2.50;;;;;;;25.83;43.89;99337.06;4154161;28;20681;-74
2022/06/03 11:07:40;;;;;;;5.15;2.22;;;;;;;25.57;44.33;99334.31;4161563;28;20237;-73
2022/06/03 11:09:56;;;;;;;6.05;2.70;;;;;;;25.60;44.44;99321.00;4155128;28;20231;-74
2022/06/03 11:12:04;;;;;;;4.32;2.70;;;;;;;25.90;44.33;99324.03;4139128;28;20232;-73
2022/06/03 11:14:42;;;;;;;7.97;2.42;;;;;;;26.00;42.94;99324.06;4136605;28;20229;-74
2022/06/03 11:16:50;;;;;;;5.93;2.50;;;;;;;27.24;42.04;99308.25;4117349;28;20234;-74
2022/06/03 11:18:52;;;;;;;3.30;2.42;;;;;;;26.58;41.65;99331.94;4116398;28;20650;-74
2022/06/03 11:20:54;;;;;;;5.35;2.42;;;;;;;27.39;41.42;99312.81;4122909;28;20296;-75
2022/06/03 11:22:56;;;;;;;6.07;3.00;;;;;;;26.41;42.93;99313.13;4117664;28;20245;-75
2022/06/03 11:25:26;;;;;;;5.38;2.72;;;;;;;28.31;40.61;99293.03;4129032;28;20677;-74